Terminal Aerodrome Forecast
Issued by NWS

Home | Current Version | Previous Version | Text Only | Print | Product List | Glossary On
Versions: 1 2 3 4 5 6 7 8 9 10 11 12 13 14 15 16 17 18
000
FTUS44 KEWX 011141
TAFSSF
TAF
KSSF 011141Z 0112/0212 VRB04KT P6SM OVC008
     FM011500 13007KT P6SM BKN020
     FM011600 13008KT P6SM BKN050
     FM011900 13010KT P6SM VCSH BKN060
     FM020100 14010KT P6SM SCT060
     FM020600 14006KT P6SM BKN020=

USA.gov is the U.S. government's official web portal to all federal, state and local government web resources and services.